sensor_id;sensor_type;location;lat;lon;timestamp;temperature;humidity
578;DHT22;275;48.492;9.214;2023-03-31T00:00:13;15.20;30.00
578;DHT22;275;48.492;9.214;2023-03-31T00:02:40;16.00;29.00
578;DHT22;275;48.492;9.214;2023-03-31T00:05:08;16.50;28.20
578;DHT22;275;48.492;9.214;2023-03-31T00:07:35;16.90;27.60
578;DHT22;275;48.492;9.214;2023-03-31T00:10:03;16.90;27.60
578;DHT22;275;48.492;9.214;2023-03-31T00:12:30;16.40;28.00
578;DHT22;275;48.492;9.214;2023-03-31T00:14:57;15.90;28.70
578;DHT22;275;48.492;9.214;2023-03-31T00:17:25;16.20;28.50
578;DHT22;275;48.492;9.214;2023-03-31T00:19:52;16.50;28.10
578;DHT22;275;48.492;9.214;2023-03-31T00:22:24;16.60;28.50
578;DHT22;275;48.492;9.214;2023-03-31T00:24:53;16.40;28.80
578;DHT22;275;48.492;9.214;2023-03-31T00:27:19;16.40;28.80
578;DHT22;275;48.492;9.214;2023-03-31T00:29:46;16.40;28.80
578;DHT22;275;48.492;9.214;2023-03-31T00:32:15;16.50;28.80
578;DHT22;275;48.492;9.214;2023-03-31T00:34:44;16.60;28.60
578;DHT22;275;48.492;9.214;2023-03-31T00:37:11;16.60;28.60
578;DHT22;275;48.492;9.214;2023-03-31T00:39:40;16.30;28.90
578;DHT22;275;48.492;9.214;2023-03-31T00:42:09;16.40;28.90
578;DHT22;275;48.492;9.214;2023-03-31T00:47:48;16.10;28.80
578;DHT22;275;48.492;9.214;2023-03-31T00:50:18;16.10;29.00
578;DHT22;275;48.492;9.214;2023-03-31T00:52:46;15.70;28.30
578;DHT22;275;48.492;9.214;2023-03-31T00:55:18;15.90;28.00
578;DHT22;275;48.492;9.214;2023-03-31T00:57:49;16.30;27.70
578;DHT22;275;48.492;9.214;2023-03-31T01:00:18;16.50;27.20
578;DHT22;275;48.492;9.214;2023-03-31T01:02:51;16.20;27.70
578;DHT22;275;48.492;9.214;2023-03-31T01:05:24;16.40;27.70
578;DHT22;275;48.492;9.214;2023-03-31T01:07:51;16.70;27.40
578;DHT22;275;48.492;9.214;2023-03-31T01:10:20;16.90;26.80
578;DHT22;275;48.492;9.214;2023-03-31T01:12:50;17.00;26.70
578;DHT22;275;48.492;9.214;2023-03-31T01:15:18;17.20;26.70
578;DHT22;275;48.492;9.214;2023-03-31T01:17:45;17.00;26.80
578;DHT22;275;48.492;9.214;2023-03-31T01:20:19;17.00;26.40
578;DHT22;275;48.492;9.214;2023-03-31T01:23:08;16.40;27.30
578;DHT22;275;48.492;9.214;2023-03-31T01:26:08;15.70;28.20
578;DHT22;275;48.492;9.214;2023-03-31T01:28:49;16.10;28.50
578;DHT22;275;48.492;9.214;2023-03-31T01:31:51;16.40;27.70
578;DHT22;275;48.492;9.214;2023-03-31T01:43:26;15.20;28.90
578;DHT22;275;48.492;9.214;2023-03-31T01:45:57;15.20;29.50
578;DHT22;275;48.492;9.214;2023-03-31T01:48:31;15.20;28.90
578;DHT22;275;48.492;9.214;2023-03-31T01:51:03;14.70;30.10
578;DHT22;275;48.492;9.214;2023-03-31T01:53:38;14.90;30.40
578;DHT22;275;48.492;9.214;2023-03-31T01:56:14;14.60;30.60
578;DHT22;275;48.492;9.214;2023-03-31T01:58:49;14.50;31.50
578;DHT22;275;48.492;9.214;2023-03-31T02:01:20;14.70;31.60
578;DHT22;275;48.492;9.214;2023-03-31T02:03:54;14.50;32.00
578;DHT22;275;48.492;9.214;2023-03-31T02:06:25;14.20;33.00
578;DHT22;275;48.492;9.214;2023-03-31T02:08:56;13.90;34.10
578;DHT22;275;48.492;9.214;2023-03-31T02:11:28;14.20;33.30
578;DHT22;275;48.492;9.214;2023-03-31T02:13:57;13.90;35.10
578;DHT22;275;48.492;9.214;2023-03-31T02:16:29;13.90;35.60
578;DHT22;275;48.492;9.214;2023-03-31T02:19:00;13.50;36.60
578;DHT22;275;48.492;9.214;2023-03-31T02:21:31;13.40;38.10
578;DHT22;275;48.492;9.214;2023-03-31T02:23:59;13.40;39.00
578;DHT22;275;48.492;9.214;2023-03-31T02:26:33;13.20;40.00
578;DHT22;275;48.492;9.214;2023-03-31T02:29:01;13.40;39.90
578;DHT22;275;48.492;9.214;2023-03-31T02:31:35;13.20;41.00
578;DHT22;275;48.492;9.214;2023-03-31T02:34:03;13.10;42.60
578;DHT22;275;48.492;9.214;2023-03-31T02:36:30;13.30;41.70
578;DHT22;275;48.492;9.214;2023-03-31T02:39:02;13.20;42.40
578;DHT22;275;48.492;9.214;2023-03-31T02:41:31;13.30;42.60
578;DHT22;275;48.492;9.214;2023-03-31T02:43:58;14.00;41.20
578;DHT22;275;48.492;9.214;2023-03-31T02:46:26;14.60;39.40
578;DHT22;275;48.492;9.214;2023-03-31T02:48:55;14.60;38.80
578;DHT22;275;48.492;9.214;2023-03-31T02:54:39;14.70;39.50
578;DHT22;275;48.492;9.214;2023-03-31T02:57:35;15.10;38.40
578;DHT22;275;48.492;9.214;2023-03-31T03:00:08;14.90;38.70
578;DHT22;275;48.492;9.214;2023-03-31T03:02:45;14.80;39.00
578;DHT22;275;48.492;9.214;2023-03-31T03:05:27;14.40;40.00
578;DHT22;275;48.492;9.214;2023-03-31T03:08:06;14.60;39.90
578;DHT22;275;48.492;9.214;2023-03-31T03:10:41;14.90;39.10
578;DHT22;275;48.492;9.214;2023-03-31T03:13:18;15.00;39.40
578;DHT22;275;48.492;9.214;2023-03-31T03:15:48;14.80;39.60
578;DHT22;275;48.492;9.214;2023-03-31T03:18:17;14.60;40.70
578;DHT22;275;48.492;9.214;2023-03-31T03:20:44;14.10;41.40
578;DHT22;275;48.492;9.214;2023-03-31T03:23:13;14.00;41.50
578;DHT22;275;48.492;9.214;2023-03-31T03:25:41;14.30;40.90
578;DHT22;275;48.492;9.214;2023-03-31T03:28:08;14.40;40.10
578;DHT22;275;48.492;9.214;2023-03-31T03:30:36;14.40;39.50
578;DHT22;275;48.492;9.214;2023-03-31T03:33:03;14.50;39.40
578;DHT22;275;48.492;9.214;2023-03-31T03:35:31;14.20;39.90
578;DHT22;275;48.492;9.214;2023-03-31T03:37:57;14.20;39.50
578;DHT22;275;48.492;9.214;2023-03-31T03:40:24;14.40;39.10
578;DHT22;275;48.492;9.214;2023-03-31T03:42:51;14.40;38.90
578;DHT22;275;48.492;9.214;2023-03-31T03:45:18;14.00;39.70
578;DHT22;275;48.492;9.214;2023-03-31T03:47:46;14.10;39.30
578;DHT22;275;48.492;9.214;2023-03-31T03:50:13;14.30;38.80
578;DHT22;275;48.492;9.214;2023-03-31T03:52:40;14.20;39.10
578;DHT22;275;48.492;9.214;2023-03-31T03:55:07;14.10;39.70
578;DHT22;275;48.492;9.214;2023-03-31T03:57:36;13.90;39.90
578;DHT22;275;48.492;9.214;2023-03-31T04:00:04;13.70;40.00
578;DHT22;275;48.492;9.214;2023-03-31T04:02:34;13.60;40.30
578;DHT22;275;48.492;9.214;2023-03-31T04:05:03;13.20;41.50
578;DHT22;275;48.492;9.214;2023-03-31T04:07:30;13.10;41.80
578;DHT22;275;48.492;9.214;2023-03-31T04:09:56;13.10;41.70
578;DHT22;275;48.492;9.214;2023-03-31T04:12:23;12.90;42.20
578;DHT22;275;48.492;9.214;2023-03-31T04:14:50;12.80;42.50
578;DHT22;275;48.492;9.214;2023-03-31T04:17:17;12.70;42.60
578;DHT22;275;48.492;9.214;2023-03-31T04:19:44;12.80;42.50
578;DHT22;275;48.492;9.214;2023-03-31T04:22:16;12.80;42.60
578;DHT22;275;48.492;9.214;2023-03-31T04:24:45;13.10;41.70
578;DHT22;275;48.492;9.214;2023-03-31T04:27:17;13.10;41.10
578;DHT22;275;48.492;9.214;2023-03-31T04:29:45;13.10;41.00
578;DHT22;275;48.492;9.214;2023-03-31T04:32:19;13.20;40.90
578;DHT22;275;48.492;9.214;2023-03-31T04:34:46;13.70;39.10
578;DHT22;275;48.492;9.214;2023-03-31T04:37:16;13.40;39.50
578;DHT22;275;48.492;9.214;2023-03-31T04:39:43;13.40;39.50
578;DHT22;275;48.492;9.214;2023-03-31T04:42:11;13.30;39.80
578;DHT22;275;48.492;9.214;2023-03-31T04:44:39;13.40;39.80
578;DHT22;275;48.492;9.214;2023-03-31T04:47:06;13.60;39.20
578;DHT22;275;48.492;9.214;2023-03-31T04:49:32;13.40;39.60
578;DHT22;275;48.492;9.214;2023-03-31T04:52:00;13.70;38.90
578;DHT22;275;48.492;9.214;2023-03-31T04:54:28;13.60;38.90
578;DHT22;275;48.492;9.214;2023-03-31T04:56:55;13.90;38.40
578;DHT22;275;48.492;9.214;2023-03-31T04:59:22;14.10;38.40
578;DHT22;275;48.492;9.214;2023-03-31T05:01:49;14.30;37.80
578;DHT22;275;48.492;9.214;2023-03-31T05:04:16;13.80;38.70
578;DHT22;275;48.492;9.214;2023-03-31T05:06:43;13.90;38.80
578;DHT22;275;48.492;9.214;2023-03-31T05:09:09;13.90;39.00
578;DHT22;275;48.492;9.214;2023-03-31T05:11:38;13.80;39.70
578;DHT22;275;48.492;9.214;2023-03-31T05:14:05;13.40;41.50
578;DHT22;275;48.492;9.214;2023-03-31T05:16:32;13.60;41.60
578;DHT22;275;48.492;9.214;2023-03-31T05:18:59;13.80;41.20
578;DHT22;275;48.492;9.214;2023-03-31T05:21:26;13.50;42.40
578;DHT22;275;48.492;9.214;2023-03-31T05:23:55;13.10;44.10
578;DHT22;275;48.492;9.214;2023-03-31T05:26:21;12.60;45.90
578;DHT22;275;48.492;9.214;2023-03-31T05:28:50;13.00;45.40
578;DHT22;275;48.492;9.214;2023-03-31T05:31:17;13.40;44.80
578;DHT22;275;48.492;9.214;2023-03-31T05:33:44;13.70;43.30
578;DHT22;275;48.492;9.214;2023-03-31T05:36:13;13.30;44.80
578;DHT22;275;48.492;9.214;2023-03-31T05:38:40;13.40;44.90
578;DHT22;275;48.492;9.214;2023-03-31T05:41:07;13.60;44.30
578;DHT22;275;48.492;9.214;2023-03-31T05:43:35;13.50;45.10
578;DHT22;275;48.492;9.214;2023-03-31T05:46:04;13.20;46.10
578;DHT22;275;48.492;9.214;2023-03-31T05:48:31;13.30;45.60
578;DHT22;275;48.492;9.214;2023-03-31T05:50:59;13.50;45.60
578;DHT22;275;48.492;9.214;2023-03-31T05:53:26;13.50;45.70
578;DHT22;275;48.492;9.214;2023-03-31T05:55:56;13.50;46.30
578;DHT22;275;48.492;9.214;2023-03-31T05:58:24;13.70;45.90
578;DHT22;275;48.492;9.214;2023-03-31T06:00:59;13.80;45.30
578;DHT22;275;48.492;9.214;2023-03-31T06:03:28;13.90;45.40
578;DHT22;275;48.492;9.214;2023-03-31T06:05:54;14.10;44.90
578;DHT22;275;48.492;9.214;2023-03-31T06:08:22;13.90;45.60
578;DHT22;275;48.492;9.214;2023-03-31T06:10:49;13.90;45.90
578;DHT22;275;48.492;9.214;2023-03-31T06:13:16;14.00;45.30
578;DHT22;275;48.492;9.214;2023-03-31T06:15:51;14.00;45.30
578;DHT22;275;48.492;9.214;2023-03-31T06:18:18;14.20;44.80
578;DHT22;275;48.492;9.214;2023-03-31T06:20:46;14.10;44.80
578;DHT22;275;48.492;9.214;2023-03-31T06:23:13;14.10;44.80
578;DHT22;275;48.492;9.214;2023-03-31T06:25:40;13.90;45.60
578;DHT22;275;48.492;9.214;2023-03-31T06:28:06;13.80;45.60
578;DHT22;275;48.492;9.214;2023-03-31T06:30:33;13.40;47.60
578;DHT22;275;48.492;9.214;2023-03-31T06:33:00;13.30;48.30
578;DHT22;275;48.492;9.214;2023-03-31T06:35:27;13.40;47.70
578;DHT22;275;48.492;9.214;2023-03-31T06:37:55;13.30;48.60
578;DHT22;275;48.492;9.214;2023-03-31T06:40:23;13.20;48.90
578;DHT22;275;48.492;9.214;2023-03-31T06:42:50;13.30;49.20
578;DHT22;275;48.492;9.214;2023-03-31T06:45:17;13.70;48.20
578;DHT22;275;48.492;9.214;2023-03-31T06:47:44;13.30;48.40
578;DHT22;275;48.492;9.214;2023-03-31T06:50:10;13.50;47.60
578;DHT22;275;48.492;9.214;2023-03-31T06:52:37;13.00;49.10
578;DHT22;275;48.492;9.214;2023-03-31T06:55:07;12.70;50.90
578;DHT22;275;48.492;9.214;2023-03-31T06:57:34;13.30;49.90
578;DHT22;275;48.492;9.214;2023-03-31T07:00:02;13.10;51.80
578;DHT22;275;48.492;9.214;2023-03-31T07:02:30;12.60;53.50
578;DHT22;275;48.492;9.214;2023-03-31T07:04:56;12.50;53.00
578;DHT22;275;48.492;9.214;2023-03-31T07:07:23;12.20;53.50
578;DHT22;275;48.492;9.214;2023-03-31T07:09:50;11.60;54.00
578;DHT22;275;48.492;9.214;2023-03-31T07:12:18;11.40;56.10
578;DHT22;275;48.492;9.214;2023-03-31T07:14:45;11.10;55.70
578;DHT22;275;48.492;9.214;2023-03-31T07:17:12;11.10;54.60
578;DHT22;275;48.492;9.214;2023-03-31T07:19:39;11.00;55.90
578;DHT22;275;48.492;9.214;2023-03-31T07:22:06;10.60;57.40
578;DHT22;275;48.492;9.214;2023-03-31T07:24:33;10.70;57.80
578;DHT22;275;48.492;9.214;2023-03-31T07:27:00;10.90;57.20
578;DHT22;275;48.492;9.214;2023-03-31T07:29:29;11.40;54.00
578;DHT22;275;48.492;9.214;2023-03-31T07:31:55;11.10;56.50
578;DHT22;275;48.492;9.214;2023-03-31T07:34:22;11.00;56.40
578;DHT22;275;48.492;9.214;2023-03-31T07:36:49;10.80;56.60
578;DHT22;275;48.492;9.214;2023-03-31T07:39:17;10.90;56.60
578;DHT22;275;48.492;9.214;2023-03-31T07:41:44;11.10;55.30
578;DHT22;275;48.492;9.214;2023-03-31T07:44:11;11.40;55.40
578;DHT22;275;48.492;9.214;2023-03-31T07:46:39;11.70;53.80
578;DHT22;275;48.492;9.214;2023-03-31T07:49:06;11.90;52.70
578;DHT22;275;48.492;9.214;2023-03-31T07:51:34;12.10;51.20
578;DHT22;275;48.492;9.214;2023-03-31T07:54:00;11.90;51.50
578;DHT22;275;48.492;9.214;2023-03-31T07:56:27;11.90;51.30
578;DHT22;275;48.492;9.214;2023-03-31T07:58:54;11.80;51.10
578;DHT22;275;48.492;9.214;2023-03-31T08:01:21;12.40;49.60
578;DHT22;275;48.492;9.214;2023-03-31T08:03:51;13.00;48.30
578;DHT22;275;48.492;9.214;2023-03-31T08:06:20;13.60;44.50
578;DHT22;275;48.492;9.214;2023-03-31T08:08:47;14.20;41.30
578;DHT22;275;48.492;9.214;2023-03-31T08:11:14;14.40;42.40
578;DHT22;275;48.492;9.214;2023-03-31T08:13:41;16.40;38.40
578;DHT22;275;48.492;9.214;2023-03-31T08:16:07;18.30;33.40
578;DHT22;275;48.492;9.214;2023-03-31T08:18:34;17.40;31.60
578;DHT22;275;48.492;9.214;2023-03-31T08:21:03;16.10;36.10
578;DHT22;275;48.492;9.214;2023-03-31T08:23:30;17.10;34.50
578;DHT22;275;48.492;9.214;2023-03-31T08:26:07;17.00;34.10
578;DHT22;275;48.492;9.214;2023-03-31T08:28:34;18.50;32.50
578;DHT22;275;48.492;9.214;2023-03-31T08:31:03;20.70;28.70
578;DHT22;275;48.492;9.214;2023-03-31T08:33:30;21.30;26.60
578;DHT22;275;48.492;9.214;2023-03-31T08:36:02;19.80;28.50
578;DHT22;275;48.492;9.214;2023-03-31T08:38:29;20.60;26.80
578;DHT22;275;48.492;9.214;2023-03-31T08:41:00;20.30;26.80
578;DHT22;275;48.492;9.214;2023-03-31T08:43:31;19.80;27.70
578;DHT22;275;48.492;9.214;2023-03-31T08:46:00;19.60;28.00
578;DHT22;275;48.492;9.214;2023-03-31T08:48:30;19.70;27.60
578;DHT22;275;48.492;9.214;2023-03-31T08:51:04;18.30;29.10
578;DHT22;275;48.492;9.214;2023-03-31T08:53:35;20.40;27.30
578;DHT22;275;48.492;9.214;2023-03-31T08:56:08;23.30;24.90
578;DHT22;275;48.492;9.214;2023-03-31T08:58:43;23.70;23.30
578;DHT22;275;48.492;9.214;2023-03-31T09:01:21;24.90;22.40
578;DHT22;275;48.492;9.214;2023-03-31T09:04:08;21.40;25.00
578;DHT22;275;48.492;9.214;2023-03-31T09:06:48;22.50;25.20
578;DHT22;275;48.492;9.214;2023-03-31T09:09:21;24.20;24.00
578;DHT22;275;48.492;9.214;2023-03-31T09:11:53;25.70;21.90
578;DHT22;275;48.492;9.214;2023-03-31T09:14:30;22.50;23.20
578;DHT22;275;48.492;9.214;2023-03-31T09:17:06;21.10;24.90
578;DHT22;275;48.492;9.214;2023-03-31T09:19:40;18.80;27.60
578;DHT22;275;48.492;9.214;2023-03-31T09:22:14;17.90;28.40
578;DHT22;275;48.492;9.214;2023-03-31T09:24:51;16.90;28.80
578;DHT22;275;48.492;9.214;2023-03-31T09:27:20;16.20;29.80
578;DHT22;275;48.492;9.214;2023-03-31T09:29:49;15.70;30.80
578;DHT22;275;48.492;9.214;2023-03-31T09:32:19;15.70;30.60
578;DHT22;275;48.492;9.214;2023-03-31T09:34:49;15.20;31.30
578;DHT22;275;48.492;9.214;2023-03-31T09:37:17;15.70;31.00
578;DHT22;275;48.492;9.214;2023-03-31T09:39:44;17.00;28.90
578;DHT22;275;48.492;9.214;2023-03-31T09:42:12;17.90;27.80
578;DHT22;275;48.492;9.214;2023-03-31T09:44:41;19.10;26.90
578;DHT22;275;48.492;9.214;2023-03-31T09:47:13;19.60;24.70
578;DHT22;275;48.492;9.214;2023-03-31T09:49:44;17.80;26.90
578;DHT22;275;48.492;9.214;2023-03-31T09:52:16;18.60;25.60
578;DHT22;275;48.492;9.214;2023-03-31T09:54:49;20.10;24.70
578;DHT22;275;48.492;9.214;2023-03-31T09:57:24;20.70;23.50
578;DHT22;275;48.492;9.214;2023-03-31T09:59:52;21.00;23.60
578;DHT22;275;48.492;9.214;2023-03-31T10:02:34;21.50;22.40
578;DHT22;275;48.492;9.214;2023-03-31T10:05:03;20.30;23.20
578;DHT22;275;48.492;9.214;2023-03-31T10:07:32;20.80;22.00
578;DHT22;275;48.492;9.214;2023-03-31T10:10:01;22.20;21.20
578;DHT22;275;48.492;9.214;2023-03-31T10:12:29;21.80;20.60
578;DHT22;275;48.492;9.214;2023-03-31T10:15:10;22.50;20.30
578;DHT22;275;48.492;9.214;2023-03-31T10:17:43;24.30;18.70
578;DHT22;275;48.492;9.214;2023-03-31T10:20:19;25.80;17.60
578;DHT22;275;48.492;9.214;2023-03-31T10:22:47;23.70;18.10
578;DHT22;275;48.492;9.214;2023-03-31T10:25:16;25.60;17.90
578;DHT22;275;48.492;9.214;2023-03-31T10:27:46;24.80;16.80
578;DHT22;275;48.492;9.214;2023-03-31T10:30:19;23.50;17.70
578;DHT22;275;48.492;9.214;2023-03-31T10:32:46;22.50;18.60
578;DHT22;275;48.492;9.214;2023-03-31T10:35:22;22.60;18.80
578;DHT22;275;48.492;9.214;2023-03-31T10:37:54;20.90;19.10
578;DHT22;275;48.492;9.214;2023-03-31T10:40:25;19.40;20.60
578;DHT22;275;48.492;9.214;2023-03-31T10:43:02;19.30;20.50
578;DHT22;275;48.492;9.214;2023-03-31T10:45:30;18.90;21.20
578;DHT22;275;48.492;9.214;2023-03-31T10:48:15;18.40;22.20
578;DHT22;275;48.492;9.214;2023-03-31T10:50:42;18.20;22.50
578;DHT22;275;48.492;9.214;2023-03-31T10:53:11;21.30;19.70
578;DHT22;275;48.492;9.214;2023-03-31T10:55:44;21.60;19.30
578;DHT22;275;48.492;9.214;2023-03-31T10:58:22;22.80;18.20
578;DHT22;275;48.492;9.214;2023-03-31T11:01:04;23.60;17.70
578;DHT22;275;48.492;9.214;2023-03-31T11:06:45;20.70;19.80
578;DHT22;275;48.492;9.214;2023-03-31T11:09:33;19.80;20.10
578;DHT22;275;48.492;9.214;2023-03-31T11:12:10;18.90;20.80
578;DHT22;275;48.492;9.214;2023-03-31T11:14:49;18.60;20.50
578;DHT22;275;48.492;9.214;2023-03-31T11:17:29;18.50;20.80
578;DHT22;275;48.492;9.214;2023-03-31T11:20:07;18.10;19.80
578;DHT22;275;48.492;9.214;2023-03-31T11:22:45;17.40;21.70
578;DHT22;275;48.492;9.214;2023-03-31T11:25:27;16.80;22.40
578;DHT22;275;48.492;9.214;2023-03-31T11:28:18;16.20;25.40
578;DHT22;275;48.492;9.214;2023-03-31T11:30:50;13.20;40.60
578;DHT22;275;48.492;9.214;2023-03-31T11:33:40;11.20;48.20
578;DHT22;275;48.492;9.214;2023-03-31T11:36:19;10.40;47.90
578;DHT22;275;48.492;9.214;2023-03-31T11:38:56;10.10;49.70
578;DHT22;275;48.492;9.214;2023-03-31T11:41:30;9.90;49.50
578;DHT22;275;48.492;9.214;2023-03-31T11:44:01;10.20;49.70
578;DHT22;275;48.492;9.214;2023-03-31T11:46:33;9.90;50.50
578;DHT22;275;48.492;9.214;2023-03-31T11:49:07;9.70;51.00
578;DHT22;275;48.492;9.214;2023-03-31T11:51:42;9.70;51.20
578;DHT22;275;48.492;9.214;2023-03-31T11:54:17;9.80;51.30
578;DHT22;275;48.492;9.214;2023-03-31T11:56:45;10.10;47.90
578;DHT22;275;48.492;9.214;2023-03-31T11:59:15;10.30;47.10
578;DHT22;275;48.492;9.214;2023-03-31T12:01:46;10.90;46.10
578;DHT22;275;48.492;9.214;2023-03-31T12:04:23;11.20;45.30
578;DHT22;275;48.492;9.214;2023-03-31T12:06:58;11.30;44.80
578;DHT22;275;48.492;9.214;2023-03-31T12:09:31;11.00;47.20
578;DHT22;275;48.492;9.214;2023-03-31T12:12:04;11.30;44.10
578;DHT22;275;48.492;9.214;2023-03-31T12:14:36;11.10;43.40
578;DHT22;275;48.492;9.214;2023-03-31T12:17:09;11.40;42.70
578;DHT22;275;48.492;9.214;2023-03-31T12:19:43;11.20;41.70
578;DHT22;275;48.492;9.214;2023-03-31T12:22:15;10.10;48.20
578;DHT22;275;48.492;9.214;2023-03-31T12:24:43;10.00;46.20
578;DHT22;275;48.492;9.214;2023-03-31T12:27:14;10.70;43.50
578;DHT22;275;48.492;9.214;2023-03-31T12:29:47;11.50;41.60
578;DHT22;275;48.492;9.214;2023-03-31T12:32:19;12.30;41.00
578;DHT22;275;48.492;9.214;2023-03-31T12:34:53;14.00;37.20
578;DHT22;275;48.492;9.214;2023-03-31T12:40:23;16.60;32.60
578;DHT22;275;48.492;9.214;2023-03-31T12:43:06;17.60;29.50
578;DHT22;275;48.492;9.214;2023-03-31T12:45:42;17.50;29.90
578;DHT22;275;48.492;9.214;2023-03-31T12:48:26;17.10;29.30
578;DHT22;275;48.492;9.214;2023-03-31T12:51:06;18.50;29.30
578;DHT22;275;48.492;9.214;2023-03-31T12:53:46;18.60;27.10
578;DHT22;275;48.492;9.214;2023-03-31T12:56:16;16.60;29.80
578;DHT22;275;48.492;9.214;2023-03-31T12:58:44;16.50;30.40
578;DHT22;275;48.492;9.214;2023-03-31T13:01:16;17.90;28.20
578;DHT22;275;48.492;9.214;2023-03-31T13:03:51;19.40;26.60
578;DHT22;275;48.492;9.214;2023-03-31T13:06:55;19.80;26.50
578;DHT22;275;48.492;9.214;2023-03-31T13:09:48;19.00;25.30
578;DHT22;275;48.492;9.214;2023-03-31T13:12:20;17.40;28.30
578;DHT22;275;48.492;9.214;2023-03-31T13:14:49;16.30;29.20
578;DHT22;275;48.492;9.214;2023-03-31T13:17:28;15.50;31.90
578;DHT22;275;48.492;9.214;2023-03-31T13:20:13;16.20;30.40
578;DHT22;275;48.492;9.214;2023-03-31T13:22:44;16.50;30.30
578;DHT22;275;48.492;9.214;2023-03-31T13:25:40;16.20;30.30
578;DHT22;275;48.492;9.214;2023-03-31T13:31:09;16.40;30.70
578;DHT22;275;48.492;9.214;2023-03-31T13:33:43;17.00;30.00
578;DHT22;275;48.492;9.214;2023-03-31T13:42:01;17.00;27.80
578;DHT22;275;48.492;9.214;2023-03-31T13:44:47;16.10;30.10
578;DHT22;275;48.492;9.214;2023-03-31T13:47:40;16.30;28.90
578;DHT22;275;48.492;9.214;2023-03-31T13:50:31;16.00;31.00
578;DHT22;275;48.492;9.214;2023-03-31T13:53:06;15.30;32.70
578;DHT22;275;48.492;9.214;2023-03-31T13:55:55;14.90;35.00
578;DHT22;275;48.492;9.214;2023-03-31T13:58:33;13.50;37.30
578;DHT22;275;48.492;9.214;2023-03-31T14:01:29;12.90;39.40
578;DHT22;275;48.492;9.214;2023-03-31T14:04:11;13.20;41.10
578;DHT22;275;48.492;9.214;2023-03-31T14:06:47;12.90;43.20
578;DHT22;275;48.492;9.214;2023-03-31T14:09:21;12.30;43.90
578;DHT22;275;48.492;9.214;2023-03-31T14:11:49;12.30;46.00
578;DHT22;275;48.492;9.214;2023-03-31T14:14:17;12.90;44.20
578;DHT22;275;48.492;9.214;2023-03-31T14:16:46;13.40;42.90
578;DHT22;275;48.492;9.214;2023-03-31T14:19:39;12.80;45.30
578;DHT22;275;48.492;9.214;2023-03-31T14:22:17;12.60;45.20
578;DHT22;275;48.492;9.214;2023-03-31T14:24:50;11.90;47.00
578;DHT22;275;48.492;9.214;2023-03-31T14:27:37;11.90;43.70
578;DHT22;275;48.492;9.214;2023-03-31T14:30:15;12.20;43.20
578;DHT22;275;48.492;9.214;2023-03-31T14:32:47;12.00;43.50
578;DHT22;275;48.492;9.214;2023-03-31T14:35:25;12.20;41.40
578;DHT22;275;48.492;9.214;2023-03-31T14:37:55;12.60;41.50
578;DHT22;275;48.492;9.214;2023-03-31T14:40:24;13.20;39.50
578;DHT22;275;48.492;9.214;2023-03-31T14:42:51;12.70;39.70
578;DHT22;275;48.492;9.214;2023-03-31T14:45:21;12.70;40.50
578;DHT22;275;48.492;9.214;2023-03-31T14:47:56;12.70;39.80
578;DHT22;275;48.492;9.214;2023-03-31T14:50:28;12.00;42.50
578;DHT22;275;48.492;9.214;2023-03-31T14:52:58;12.00;43.40
578;DHT22;275;48.492;9.214;2023-03-31T14:55:28;12.20;43.60
578;DHT22;275;48.492;9.214;2023-03-31T14:57:57;12.00;43.80
578;DHT22;275;48.492;9.214;2023-03-31T15:00:27;12.30;42.60
578;DHT22;275;48.492;9.214;2023-03-31T15:02:56;12.60;42.00
578;DHT22;275;48.492;9.214;2023-03-31T15:05:27;12.60;42.20
578;DHT22;275;48.492;9.214;2023-03-31T15:08:01;12.50;42.50
578;DHT22;275;48.492;9.214;2023-03-31T15:10:32;12.60;43.30
578;DHT22;275;48.492;9.214;2023-03-31T15:13:05;11.90;43.60
578;DHT22;275;48.492;9.214;2023-03-31T15:15:33;12.30;43.90
578;DHT22;275;48.492;9.214;2023-03-31T15:18:00;12.50;42.00
578;DHT22;275;48.492;9.214;2023-03-31T15:20:29;12.10;42.70
578;DHT22;275;48.492;9.214;2023-03-31T15:22:58;12.20;41.90
578;DHT22;275;48.492;9.214;2023-03-31T15:25:29;12.10;41.60
578;DHT22;275;48.492;9.214;2023-03-31T15:28:00;12.10;41.70
578;DHT22;275;48.492;9.214;2023-03-31T15:30:28;12.00;41.50
578;DHT22;275;48.492;9.214;2023-03-31T15:32:56;12.10;40.30
578;DHT22;275;48.492;9.214;2023-03-31T15:35:26;12.30;39.50
578;DHT22;275;48.492;9.214;2023-03-31T15:37:56;12.50;39.00
578;DHT22;275;48.492;9.214;2023-03-31T15:40:27;12.40;38.60
578;DHT22;275;48.492;9.214;2023-03-31T15:42:56;12.70;38.20
578;DHT22;275;48.492;9.214;2023-03-31T15:45:37;13.10;38.40
578;DHT22;275;48.492;9.214;2023-03-31T15:48:18;12.80;37.10
578;DHT22;275;48.492;9.214;2023-03-31T15:50:45;12.30;37.90
578;DHT22;275;48.492;9.214;2023-03-31T15:53:25;12.40;38.10
578;DHT22;275;48.492;9.214;2023-03-31T15:55:55;13.00;37.10
578;DHT22;275;48.492;9.214;2023-03-31T15:58:46;12.60;36.20
578;DHT22;275;48.492;9.214;2023-03-31T16:01:14;12.30;37.40
578;DHT22;275;48.492;9.214;2023-03-31T16:03:42;12.80;36.20
578;DHT22;275;48.492;9.214;2023-03-31T16:06:18;12.50;36.70
578;DHT22;275;48.492;9.214;2023-03-31T16:08:50;12.50;37.00
578;DHT22;275;48.492;9.214;2023-03-31T16:11:21;12.50;37.10
578;DHT22;275;48.492;9.214;2023-03-31T16:13:53;12.30;37.60
578;DHT22;275;48.492;9.214;2023-03-31T16:16:22;12.70;37.30
578;DHT22;275;48.492;9.214;2023-03-31T16:18:54;12.90;36.80
578;DHT22;275;48.492;9.214;2023-03-31T16:21:34;12.70;36.90
578;DHT22;275;48.492;9.214;2023-03-31T16:24:03;12.40;36.60
578;DHT22;275;48.492;9.214;2023-03-31T16:26:31;12.50;37.80
578;DHT22;275;48.492;9.214;2023-03-31T16:29:00;12.90;36.20
578;DHT22;275;48.492;9.214;2023-03-31T16:31:29;12.90;36.20
578;DHT22;275;48.492;9.214;2023-03-31T16:33:59;12.40;36.10
578;DHT22;275;48.492;9.214;2023-03-31T16:36:25;12.40;36.80
578;DHT22;275;48.492;9.214;2023-03-31T16:38:55;12.50;36.40
578;DHT22;275;48.492;9.214;2023-03-31T16:41:23;12.40;37.80
578;DHT22;275;48.492;9.214;2023-03-31T16:43:51;12.40;39.60
578;DHT22;275;48.492;9.214;2023-03-31T16:46:21;12.20;41.10
578;DHT22;275;48.492;9.214;2023-03-31T16:48:48;11.30;44.20
578;DHT22;275;48.492;9.214;2023-03-31T16:51:15;10.90;47.00
578;DHT22;275;48.492;9.214;2023-03-31T16:53:42;10.90;48.30
578;DHT22;275;48.492;9.214;2023-03-31T16:56:10;11.20;47.80
578;DHT22;275;48.492;9.214;2023-03-31T16:58:39;11.40;46.60
578;DHT22;275;48.492;9.214;2023-03-31T17:01:06;11.00;45.90
578;DHT22;275;48.492;9.214;2023-03-31T17:03:35;11.30;45.60
578;DHT22;275;48.492;9.214;2023-03-31T17:06:05;10.80;46.20
578;DHT22;275;48.492;9.214;2023-03-31T17:08:33;10.90;47.10
578;DHT22;275;48.492;9.214;2023-03-31T17:11:01;11.10;47.30
578;DHT22;275;48.492;9.214;2023-03-31T17:13:28;10.80;47.10
578;DHT22;275;48.492;9.214;2023-03-31T17:15:57;10.70;48.20
578;DHT22;275;48.492;9.214;2023-03-31T17:18:24;11.30;47.60
578;DHT22;275;48.492;9.214;2023-03-31T17:20:52;12.10;45.40
578;DHT22;275;48.492;9.214;2023-03-31T17:23:19;12.90;43.70
578;DHT22;275;48.492;9.214;2023-03-31T17:25:47;13.30;42.10
578;DHT22;275;48.492;9.214;2023-03-31T17:28:14;13.70;40.70
578;DHT22;275;48.492;9.214;2023-03-31T17:30:41;13.50;41.40